sensor_id;sensor_type;location;lat;lon;timestamp;pressure;altitude;pressure_sealevel;temperature;humidity
45731;BME280;31440;48.584;13.460;2022-07-29T00:00:05;96725.56;;;19.70;69.99
45731;BME280;31440;48.584;13.460;2022-07-29T00:02:31;96730.97;;;19.68;71.03
45731;BME280;31440;48.584;13.460;2022-07-29T00:04:57;96732.31;;;19.74;70.74
45731;BME280;31440;48.584;13.460;2022-07-29T00:07:23;96724.50;;;19.72;70.99
45731;BME280;31440;48.584;13.460;2022-07-29T00:09:48;96726.78;;;19.77;69.18
45731;BME280;31440;48.584;13.460;2022-07-29T00:12:14;96721.63;;;19.75;68.73
45731;BME280;31440;48.584;13.460;2022-07-29T00:14:40;96712.41;;;19.81;70.31
45731;BME280;31440;48.584;13.460;2022-07-29T00:17:05;96715.28;;;19.89;68.93
45731;BME280;31440;48.584;13.460;2022-07-29T00:19:31;96714.69;;;19.74;69.68
45731;BME280;31440;48.584;13.460;2022-07-29T00:21:56;96710.00;;;19.78;69.76
45731;BME280;31440;48.584;13.460;2022-07-29T00:24:22;96715.16;;;19.79;68.61
45731;BME280;31440;48.584;13.460;2022-07-29T00:26:47;96710.50;;;19.83;70.02
45731;BME280;31440;48.584;13.460;2022-07-29T00:29:13;96714.28;;;19.57;71.57
45731;BME280;31440;48.584;13.460;2022-07-29T00:31:39;96703.81;;;19.33;72.83
45731;BME280;31440;48.584;13.460;2022-07-29T00:34:04;96707.69;;;19.40;71.16
45731;BME280;31440;48.584;13.460;2022-07-29T00:36:31;96710.31;;;19.51;71.39
45731;BME280;31440;48.584;13.460;2022-07-29T00:38:57;96710.00;;;19.67;69.83
45731;BME280;31440;48.584;13.460;2022-07-29T00:41:22;96714.53;;;19.42;72.08
45731;BME280;31440;48.584;13.460;2022-07-29T00:43:48;96712.94;;;19.40;72.97
45731;BME280;31440;48.584;13.460;2022-07-29T00:46:14;96718.13;;;19.18;75.99
45731;BME280;31440;48.584;13.460;2022-07-29T00:48:39;96721.25;;;19.11;76.28
45731;BME280;31440;48.584;13.460;2022-07-29T00:51:06;96724.13;;;19.43;73.69
45731;BME280;31440;48.584;13.460;2022-07-29T00:53:33;96716.03;;;19.34;76.20
45731;BME280;31440;48.584;13.460;2022-07-29T00:56:00;96722.69;;;19.62;74.53
45731;BME280;31440;48.584;13.460;2022-07-29T00:58:26;96723.88;;;19.58;74.89
45731;BME280;31440;48.584;13.460;2022-07-29T01:00:52;96726.56;;;19.23;74.21
45731;BME280;31440;48.584;13.460;2022-07-29T01:03:17;96729.38;;;19.08;77.67
45731;BME280;31440;48.584;13.460;2022-07-29T01:05:44;96729.16;;;19.11;80.01
45731;BME280;31440;48.584;13.460;2022-07-29T01:08:12;96727.53;;;19.33;76.94
45731;BME280;31440;48.584;13.460;2022-07-29T01:10:39;96724.84;;;19.10;81.46
45731;BME280;31440;48.584;13.460;2022-07-29T01:13:07;96728.38;;;19.22;81.64
45731;BME280;31440;48.584;13.460;2022-07-29T01:15:40;96727.94;;;19.51;79.55
45731;BME280;31440;48.584;13.460;2022-07-29T01:18:18;96728.53;;;19.43;80.73
45731;BME280;31440;48.584;13.460;2022-07-29T01:21:15;96719.88;;;18.71;83.93
45731;BME280;31440;48.584;13.460;2022-07-29T01:26:54;96723.03;;;18.76;89.73
45731;BME280;31440;48.584;13.460;2022-07-29T01:29:27;96723.59;;;18.79;89.63
45731;BME280;31440;48.584;13.460;2022-07-29T01:32:10;96730.78;;;18.54;92.87
45731;BME280;31440;48.584;13.460;2022-07-29T01:38:07;96720.19;;;18.90;89.47
45731;BME280;31440;48.584;13.460;2022-07-29T01:40:54;96711.88;;;19.07;93.06
45731;BME280;31440;48.584;13.460;2022-07-29T01:43:42;96728.41;;;18.25;100.00
45731;BME280;31440;48.584;13.460;2022-07-29T01:46:14;96732.88;;;18.12;100.00
45731;BME280;31440;48.584;13.460;2022-07-29T01:48:44;96719.63;;;18.50;100.00
45731;BME280;31440;48.584;13.460;2022-07-29T01:51:41;96707.09;;;18.17;100.00
45731;BME280;31440;48.584;13.460;2022-07-29T01:54:14;96695.28;;;17.73;100.00
45731;BME280;31440;48.584;13.460;2022-07-29T01:56:43;96710.09;;;17.87;100.00
45731;BME280;31440;48.584;13.460;2022-07-29T01:59:11;96707.34;;;17.89;100.00
45731;BME280;31440;48.584;13.460;2022-07-29T02:01:39;96707.13;;;17.92;100.00
45731;BME280;31440;48.584;13.460;2022-07-29T02:04:07;96700.91;;;17.93;100.00
45731;BME280;31440;48.584;13.460;2022-07-29T02:06:37;96701.75;;;17.93;100.00
45731;BME280;31440;48.584;13.460;2022-07-29T02:09:04;96706.81;;;17.46;100.00
45731;BME280;31440;48.584;13.460;2022-07-29T02:11:33;96694.69;;;18.06;100.00
45731;BME280;31440;48.584;13.460;2022-07-29T02:14:01;96696.66;;;17.66;100.00
45731;BME280;31440;48.584;13.460;2022-07-29T02:16:29;96684.09;;;17.95;100.00
45731;BME280;31440;48.584;13.460;2022-07-29T02:18:56;96687.56;;;17.96;100.00
45731;BME280;31440;48.584;13.460;2022-07-29T02:21:24;96684.34;;;17.67;100.00
45731;BME280;31440;48.584;13.460;2022-07-29T02:23:52;96681.81;;;17.27;100.00
45731;BME280;31440;48.584;13.460;2022-07-29T02:26:23;96662.16;;;17.33;100.00
45731;BME280;31440;48.584;13.460;2022-07-29T02:28:56;96667.09;;;17.63;100.00
45731;BME280;31440;48.584;13.460;2022-07-29T02:31:25;96670.78;;;17.60;100.00
45731;BME280;31440;48.584;13.460;2022-07-29T02:33:52;96672.75;;;17.44;100.00
45731;BME280;31440;48.584;13.460;2022-07-29T02:36:22;96667.50;;;17.44;100.00
45731;BME280;31440;48.584;13.460;2022-07-29T02:38:48;96670.66;;;17.24;100.00
45731;BME280;31440;48.584;13.460;2022-07-29T02:41:30;96679.44;;;17.50;100.00
45731;BME280;31440;48.584;13.460;2022-07-29T02:44:03;96679.59;;;17.08;100.00
45731;BME280;31440;48.584;13.460;2022-07-29T02:46:34;96684.09;;;17.06;100.00
45731;BME280;31440;48.584;13.460;2022-07-29T02:49:13;96684.03;;;17.33;100.00
45731;BME280;31440;48.584;13.460;2022-07-29T02:51:52;96677.41;;;17.66;100.00
45731;BME280;31440;48.584;13.460;2022-07-29T02:54:23;96679.50;;;17.48;100.00
45731;BME280;31440;48.584;13.460;2022-07-29T02:56:51;96680.03;;;17.28;100.00
45731;BME280;31440;48.584;13.460;2022-07-29T02:59:22;96661.94;;;17.49;100.00
45731;BME280;31440;48.584;13.460;2022-07-29T03:01:50;96669.75;;;17.50;100.00
45731;BME280;31440;48.584;13.460;2022-07-29T03:04:19;96671.63;;;17.61;100.00
45731;BME280;31440;48.584;13.460;2022-07-29T03:06:45;96670.47;;;17.65;100.00
45731;BME280;31440;48.584;13.460;2022-07-29T03:09:13;96670.06;;;17.58;100.00
45731;BME280;31440;48.584;13.460;2022-07-29T03:11:41;96668.25;;;17.59;100.00
45731;BME280;31440;48.584;13.460;2022-07-29T03:14:07;96666.03;;;17.27;100.00
45731;BME280;31440;48.584;13.460;2022-07-29T03:16:34;96665.28;;;17.76;100.00
45731;BME280;31440;48.584;13.460;2022-07-29T03:19:02;96671.81;;;17.45;100.00
45731;BME280;31440;48.584;13.460;2022-07-29T03:21:29;96663.84;;;17.59;100.00
45731;BME280;31440;48.584;13.460;2022-07-29T03:23:55;96665.50;;;17.48;100.00
45731;BME280;31440;48.584;13.460;2022-07-29T03:26:20;96667.81;;;17.27;100.00
45731;BME280;31440;48.584;13.460;2022-07-29T03:28:46;96664.56;;;17.36;100.00
45731;BME280;31440;48.584;13.460;2022-07-29T03:31:12;96668.44;;;17.43;100.00
45731;BME280;31440;48.584;13.460;2022-07-29T03:33:37;96669.50;;;17.40;100.00
45731;BME280;31440;48.584;13.460;2022-07-29T03:36:03;96661.09;;;17.48;100.00
45731;BME280;31440;48.584;13.460;2022-07-29T03:38:30;96667.38;;;17.20;100.00
45731;BME280;31440;48.584;13.460;2022-07-29T03:41:03;96668.34;;;17.06;100.00
45731;BME280;31440;48.584;13.460;2022-07-29T03:43:32;96664.16;;;17.29;100.00
45731;BME280;31440;48.584;13.460;2022-07-29T03:46:00;96671.84;;;17.32;100.00
45731;BME280;31440;48.584;13.460;2022-07-29T03:48:28;96674.00;;;17.38;100.00
45731;BME280;31440;48.584;13.460;2022-07-29T03:50:56;96673.94;;;17.65;100.00
45731;BME280;31440;48.584;13.460;2022-07-29T03:53:22;96672.56;;;17.47;100.00
45731;BME280;31440;48.584;13.460;2022-07-29T03:55:51;96664.56;;;17.36;100.00
45731;BME280;31440;48.584;13.460;2022-07-29T03:58:18;96657.53;;;17.49;100.00
45731;BME280;31440;48.584;13.460;2022-07-29T04:00:44;96676.00;;;17.35;100.00
45731;BME280;31440;48.584;13.460;2022-07-29T04:03:12;96676.22;;;17.45;100.00
45731;BME280;31440;48.584;13.460;2022-07-29T04:05:38;96676.56;;;17.53;100.00
45731;BME280;31440;48.584;13.460;2022-07-29T04:08:04;96689.72;;;17.65;100.00
45731;BME280;31440;48.584;13.460;2022-07-29T04:10:30;96696.97;;;17.87;100.00
45731;BME280;31440;48.584;13.460;2022-07-29T04:12:55;96690.66;;;17.64;100.00
45731;BME280;31440;48.584;13.460;2022-07-29T04:15:21;96692.31;;;17.78;100.00
45731;BME280;31440;48.584;13.460;2022-07-29T04:17:47;96694.53;;;17.71;100.00
45731;BME280;31440;48.584;13.460;2022-07-29T04:20:12;96699.16;;;17.81;100.00
45731;BME280;31440;48.584;13.460;2022-07-29T04:22:39;96707.34;;;17.89;100.00
45731;BME280;31440;48.584;13.460;2022-07-29T04:25:05;96708.84;;;17.80;100.00
45731;BME280;31440;48.584;13.460;2022-07-29T04:27:31;96716.38;;;17.97;100.00
45731;BME280;31440;48.584;13.460;2022-07-29T04:29:56;96721.97;;;18.05;100.00
45731;BME280;31440;48.584;13.460;2022-07-29T04:32:22;96713.34;;;18.03;100.00
45731;BME280;31440;48.584;13.460;2022-07-29T04:34:48;96720.88;;;18.08;100.00
45731;BME280;31440;48.584;13.460;2022-07-29T04:37:14;96725.50;;;18.17;100.00
45731;BME280;31440;48.584;13.460;2022-07-29T04:39:39;96725.28;;;18.20;100.00
45731;BME280;31440;48.584;13.460;2022-07-29T04:42:05;96721.63;;;18.10;100.00
45731;BME280;31440;48.584;13.460;2022-07-29T04:44:30;96725.69;;;18.27;100.00
45731;BME280;31440;48.584;13.460;2022-07-29T04:46:57;96724.25;;;18.23;100.00
45731;BME280;31440;48.584;13.460;2022-07-29T04:49:22;96717.47;;;18.31;100.00
45731;BME280;31440;48.584;13.460;2022-07-29T04:51:48;96720.72;;;18.35;100.00
45731;BME280;31440;48.584;13.460;2022-07-29T04:54:14;96722.56;;;18.09;100.00
45731;BME280;31440;48.584;13.460;2022-07-29T04:56:39;96725.59;;;18.41;100.00
45731;BME280;31440;48.584;13.460;2022-07-29T04:59:05;96723.06;;;18.39;100.00
45731;BME280;31440;48.584;13.460;2022-07-29T05:01:30;96720.19;;;18.30;100.00
45731;BME280;31440;48.584;13.460;2022-07-29T05:03:56;96718.19;;;18.94;100.00
45731;BME280;31440;48.584;13.460;2022-07-29T05:06:22;96728.19;;;18.77;100.00
45731;BME280;31440;48.584;13.460;2022-07-29T05:08:47;96722.94;;;18.65;100.00
45731;BME280;31440;48.584;13.460;2022-07-29T05:11:13;96721.88;;;18.31;100.00
45731;BME280;31440;48.584;13.460;2022-07-29T05:13:39;96722.88;;;18.17;100.00
45731;BME280;31440;48.584;13.460;2022-07-29T05:16:04;96725.59;;;18.41;100.00
45731;BME280;31440;48.584;13.460;2022-07-29T05:18:30;96729.53;;;18.47;100.00
45731;BME280;31440;48.584;13.460;2022-07-29T05:20:56;96733.34;;;17.81;100.00
45731;BME280;31440;48.584;13.460;2022-07-29T05:23:22;96722.91;;;17.92;100.00
45731;BME280;31440;48.584;13.460;2022-07-29T05:25:48;96729.59;;;18.21;100.00
45731;BME280;31440;48.584;13.460;2022-07-29T05:28:13;96725.44;;;18.06;100.00
45731;BME280;31440;48.584;13.460;2022-07-29T05:30:39;96729.16;;;18.27;100.00
45731;BME280;31440;48.584;13.460;2022-07-29T05:33:05;96732.03;;;18.24;100.00
45731;BME280;31440;48.584;13.460;2022-07-29T05:35:30;96728.41;;;18.25;100.00
45731;BME280;31440;48.584;13.460;2022-07-29T05:37:56;96726.97;;;18.21;100.00
45731;BME280;31440;48.584;13.460;2022-07-29T05:40:22;96730.91;;;18.03;100.00
45731;BME280;31440;48.584;13.460;2022-07-29T05:42:47;96725.34;;;17.82;100.00
45731;BME280;31440;48.584;13.460;2022-07-29T05:45:13;96726.59;;;17.89;100.00
45731;BME280;31440;48.584;13.460;2022-07-29T05:47:38;96727.41;;;18.15;100.00
45731;BME280;31440;48.584;13.460;2022-07-29T05:50:04;96732.69;;;18.02;100.00
45731;BME280;31440;48.584;13.460;2022-07-29T05:52:30;96736.13;;;18.41;100.00
45731;BME280;31440;48.584;13.460;2022-07-29T05:54:56;96730.44;;;18.09;100.00
45731;BME280;31440;48.584;13.460;2022-07-29T05:57:23;96730.19;;;17.75;100.00
45731;BME280;31440;48.584;13.460;2022-07-29T05:59:50;96732.78;;;18.14;100.00
45731;BME280;31440;48.584;13.460;2022-07-29T06:02:16;96740.25;;;18.07;100.00
45731;BME280;31440;48.584;13.460;2022-07-29T06:04:42;96749.13;;;18.42;100.00
45731;BME280;31440;48.584;13.460;2022-07-29T06:07:08;96747.69;;;18.38;100.00
45731;BME280;31440;48.584;13.460;2022-07-29T06:09:34;96749.97;;;18.56;100.00
45731;BME280;31440;48.584;13.460;2022-07-29T06:12:00;96752.00;;;18.76;100.00
45731;BME280;31440;48.584;13.460;2022-07-29T06:14:26;96733.66;;;18.74;100.00
45731;BME280;31440;48.584;13.460;2022-07-29T06:16:52;96750.28;;;18.99;100.00
45731;BME280;31440;48.584;13.460;2022-07-29T06:19:18;96749.34;;;19.24;100.00
45731;BME280;31440;48.584;13.460;2022-07-29T06:21:45;96752.50;;;19.16;100.00
45731;BME280;31440;48.584;13.460;2022-07-29T06:24:15;96756.84;;;18.69;100.00
45731;BME280;31440;48.584;13.460;2022-07-29T06:26:41;96756.91;;;19.04;100.00
45731;BME280;31440;48.584;13.460;2022-07-29T06:29:07;96768.50;;;19.02;100.00
45731;BME280;31440;48.584;13.460;2022-07-29T06:31:33;96751.34;;;18.96;100.00
45731;BME280;31440;48.584;13.460;2022-07-29T06:33:59;96768.00;;;19.21;100.00
45731;BME280;31440;48.584;13.460;2022-07-29T06:36:24;96767.44;;;19.04;100.00
45731;BME280;31440;48.584;13.460;2022-07-29T06:38:50;96773.03;;;19.00;100.00
45731;BME280;31440;48.584;13.460;2022-07-29T06:41:16;96766.69;;;19.61;100.00
45731;BME280;31440;48.584;13.460;2022-07-29T06:43:43;96766.91;;;19.58;100.00
45731;BME280;31440;48.584;13.460;2022-07-29T06:46:11;96771.03;;;19.27;100.00
45731;BME280;31440;48.584;13.460;2022-07-29T06:48:38;96749.88;;;19.51;100.00
45731;BME280;31440;48.584;13.460;2022-07-29T06:51:05;96766.84;;;19.93;100.00
45731;BME280;31440;48.584;13.460;2022-07-29T06:53:32;96771.81;;;20.09;100.00
45731;BME280;31440;48.584;13.460;2022-07-29T06:55:59;96771.31;;;20.04;100.00
45731;BME280;31440;48.584;13.460;2022-07-29T06:58:26;96772.91;;;20.17;100.00
45731;BME280;31440;48.584;13.460;2022-07-29T07:00:56;96769.63;;;20.47;100.00
45731;BME280;31440;48.584;13.460;2022-07-29T07:03:22;96776.84;;;20.34;100.00
45731;BME280;31440;48.584;13.460;2022-07-29T07:05:48;96775.97;;;20.45;100.00
45731;BME280;31440;48.584;13.460;2022-07-29T07:08:14;96780.63;;;20.64;100.00
45731;BME280;31440;48.584;13.460;2022-07-29T07:10:42;96780.25;;;20.91;100.00
45731;BME280;31440;48.584;13.460;2022-07-29T07:13:07;96776.91;;;20.89;100.00
45731;BME280;31440;48.584;13.460;2022-07-29T07:15:33;96772.03;;;21.05;100.00
45731;BME280;31440;48.584;13.460;2022-07-29T07:18:00;96775.47;;;21.16;100.00
45731;BME280;31440;48.584;13.460;2022-07-29T07:20:26;96771.03;;;20.85;100.00
45731;BME280;31440;48.584;13.460;2022-07-29T07:22:51;96770.00;;;21.29;100.00
45731;BME280;31440;48.584;13.460;2022-07-29T07:25:17;96770.00;;;20.97;100.00
45731;BME280;31440;48.584;13.460;2022-07-29T07:27:44;96768.47;;;21.47;100.00
45731;BME280;31440;48.584;13.460;2022-07-29T07:30:10;96767.44;;;21.39;100.00
45731;BME280;31440;48.584;13.460;2022-07-29T07:32:36;96769.50;;;21.35;100.00
45731;BME280;31440;48.584;13.460;2022-07-29T07:35:04;96775.41;;;21.07;100.00
45731;BME280;31440;48.584;13.460;2022-07-29T07:37:30;96766.09;;;21.24;100.00
45731;BME280;31440;48.584;13.460;2022-07-29T07:39:55;96766.41;;;21.62;100.00
45731;BME280;31440;48.584;13.460;2022-07-29T07:42:21;96770.19;;;21.16;100.00
45731;BME280;31440;48.584;13.460;2022-07-29T07:44:47;96765.31;;;21.33;100.00
45731;BME280;31440;48.584;13.460;2022-07-29T07:47:14;96770.81;;;21.41;100.00
45731;BME280;31440;48.584;13.460;2022-07-29T07:49:40;96773.31;;;22.05;100.00
45731;BME280;31440;48.584;13.460;2022-07-29T07:52:06;96769.06;;;21.93;100.00
45731;BME280;31440;48.584;13.460;2022-07-29T07:54:32;96763.13;;;22.71;100.00
45731;BME280;31440;48.584;13.460;2022-07-29T07:56:57;96773.19;;;21.85;100.00
45731;BME280;31440;48.584;13.460;2022-07-29T07:59:23;96763.03;;;22.32;100.00
45731;BME280;31440;48.584;13.460;2022-07-29T08:01:49;96755.94;;;22.12;100.00
45731;BME280;31440;48.584;13.460;2022-07-29T08:04:15;96761.94;;;22.44;100.00
45731;BME280;31440;48.584;13.460;2022-07-29T08:06:41;96754.88;;;21.73;100.00
45731;BME280;31440;48.584;13.460;2022-07-29T08:09:07;96771.00;;;21.91;100.00
45731;BME280;31440;48.584;13.460;2022-07-29T08:11:33;96766.53;;;22.21;100.00
45731;BME280;31440;48.584;13.460;2022-07-29T08:13:58;96776.50;;;21.99;94.75
45731;BME280;31440;48.584;13.460;2022-07-29T08:16:27;96780.72;;;22.72;93.04
45731;BME280;31440;48.584;13.460;2022-07-29T08:18:52;96781.69;;;22.31;92.12
45731;BME280;31440;48.584;13.460;2022-07-29T08:21:23;96780.47;;;22.35;95.25
45731;BME280;31440;48.584;13.460;2022-07-29T08:23:49;96781.09;;;22.67;96.94
45731;BME280;31440;48.584;13.460;2022-07-29T08:26:18;96776.34;;;23.40;88.93
45731;BME280;31440;48.584;13.460;2022-07-29T08:28:45;96773.94;;;23.27;86.55
45731;BME280;31440;48.584;13.460;2022-07-29T08:31:12;96778.56;;;23.64;80.76
45731;BME280;31440;48.584;13.460;2022-07-29T08:33:38;96779.81;;;23.21;77.87
45731;BME280;31440;48.584;13.460;2022-07-29T08:36:05;96777.56;;;24.21;80.93
45731;BME280;31440;48.584;13.460;2022-07-29T08:38:31;96769.56;;;24.40;73.30
45731;BME280;31440;48.584;13.460;2022-07-29T08:40:58;96770.94;;;24.44;68.34
45731;BME280;31440;48.584;13.460;2022-07-29T08:43:24;96780.25;;;24.85;70.91
45731;BME280;31440;48.584;13.460;2022-07-29T08:45:50;96772.03;;;24.14;71.70
45731;BME280;31440;48.584;13.460;2022-07-29T08:48:19;96771.69;;;25.45;72.37
45731;BME280;31440;48.584;13.460;2022-07-29T08:50:47;96754.88;;;25.44;66.74
45731;BME280;31440;48.584;13.460;2022-07-29T08:53:17;96765.47;;;25.54;67.42
45731;BME280;31440;48.584;13.460;2022-07-29T08:55:47;96758.25;;;25.64;67.78
45731;BME280;31440;48.584;13.460;2022-07-29T08:58:14;96769.03;;;24.64;66.06
45731;BME280;31440;48.584;13.460;2022-07-29T09:00:51;96769.03;;;25.45;65.44
45731;BME280;31440;48.584;13.460;2022-07-29T09:03:19;96768.28;;;25.35;62.67
45731;BME280;31440;48.584;13.460;2022-07-29T09:05:46;96770.56;;;25.12;66.96
45731;BME280;31440;48.584;13.460;2022-07-29T09:08:16;96760.22;;;26.40;68.20
45731;BME280;31440;48.584;13.460;2022-07-29T09:10:43;96762.19;;;26.72;65.88
45731;BME280;31440;48.584;13.460;2022-07-29T09:13:08;96756.66;;;26.23;58.09
45731;BME280;31440;48.584;13.460;2022-07-29T09:15:34;96765.06;;;26.10;61.47
45731;BME280;31440;48.584;13.460;2022-07-29T09:18:00;96767.50;;;26.04;57.31
45731;BME280;31440;48.584;13.460;2022-07-29T09:20:27;96763.03;;;25.43;60.15
45731;BME280;31440;48.584;13.460;2022-07-29T09:23:13;96757.41;;;26.41;60.15
45731;BME280;31440;48.584;13.460;2022-07-29T09:25:40;96761.50;;;26.61;58.35
45731;BME280;31440;48.584;13.460;2022-07-29T09:28:08;96756.47;;;27.00;57.77
45731;BME280;31440;48.584;13.460;2022-07-29T09:30:34;96751.38;;;27.48;52.24
45731;BME280;31440;48.584;13.460;2022-07-29T09:33:02;96752.41;;;26.88;54.25
45731;BME280;31440;48.584;13.460;2022-07-29T09:35:29;96744.47;;;27.21;54.50
45731;BME280;31440;48.584;13.460;2022-07-29T09:37:56;96741.81;;;27.21;55.25
45731;BME280;31440;48.584;13.460;2022-07-29T09:40:24;96741.50;;;26.65;55.70
45731;BME280;31440;48.584;13.460;2022-07-29T09:42:51;96750.75;;;26.87;53.81
45731;BME280;31440;48.584;13.460;2022-07-29T09:45:31;96733.63;;;27.06;50.05
45731;BME280;31440;48.584;13.460;2022-07-29T09:47:57;96741.19;;;27.51;53.62
45731;BME280;31440;48.584;13.460;2022-07-29T09:50:42;96739.69;;;28.45;50.09
45731;BME280;31440;48.584;13.460;2022-07-29T09:53:10;96735.75;;;28.24;52.53
45731;BME280;31440;48.584;13.460;2022-07-29T09:55:49;96736.00;;;27.66;51.13
45731;BME280;31440;48.584;13.460;2022-07-29T09:58:19;96731.66;;;27.41;54.17
45731;BME280;31440;48.584;13.460;2022-07-29T10:00:47;96729.47;;;28.01;51.02
45731;BME280;31440;48.584;13.460;2022-07-29T10:03:14;96726.91;;;28.16;48.40
45731;BME280;31440;48.584;13.460;2022-07-29T10:05:41;96724.25;;;28.16;51.21
45731;BME280;31440;48.584;13.460;2022-07-29T10:08:07;96727.66;;;27.36;50.70
45731;BME280;31440;48.584;13.460;2022-07-29T10:10:39;96718.59;;;28.50;49.77
45731;BME280;31440;48.584;13.460;2022-07-29T10:13:09;96728.63;;;28.87;48.21
45731;BME280;31440;48.584;13.460;2022-07-29T10:15:39;96720.97;;;28.45;48.81
45731;BME280;31440;48.584;13.460;2022-07-29T10:18:09;96719.16;;;28.37;48.44
45731;BME280;31440;48.584;13.460;2022-07-29T10:20:36;96722.09;;;28.58;48.24
45731;BME280;31440;48.584;13.460;2022-07-29T10:23:03;96713.56;;;28.63;46.58
45731;BME280;31440;48.584;13.460;2022-07-29T10:25:29;96716.09;;;29.56;43.51
45731;BME280;31440;48.584;13.460;2022-07-29T10:27:55;96704.91;;;29.75;44.84
45731;BME280;31440;48.584;13.460;2022-07-29T10:30:23;96713.88;;;29.67;46.32
45731;BME280;31440;48.584;13.460;2022-07-29T10:33:10;96713.59;;;29.54;42.67
45731;BME280;31440;48.584;13.460;2022-07-29T10:43:46;96715.38;;;29.24;42.58
45731;BME280;31440;48.584;13.460;2022-07-29T10:46:13;96715.25;;;29.55;41.59
45731;BME280;31440;48.584;13.460;2022-07-29T10:49:05;96719.56;;;29.19;43.52
45731;BME280;31440;48.584;13.460;2022-07-29T10:51:53;96714.50;;;30.36;41.23
45731;BME280;31440;48.584;13.460;2022-07-29T10:57:15;96715.19;;;29.49;40.59
45731;BME280;31440;48.584;13.460;2022-07-29T10:59:43;96710.63;;;29.72;42.31
45731;BME280;31440;48.584;13.460;2022-07-29T11:05:10;96713.31;;;27.46;44.57
45731;BME280;31440;48.584;13.460;2022-07-29T11:07:38;96721.09;;;28.51;44.01
45731;BME280;31440;48.584;13.460;2022-07-29T11:10:19;96718.19;;;28.30;40.51
45731;BME280;31440;48.584;13.460;2022-07-29T11:12:46;96715.50;;;28.77;40.76
45731;BME280;31440;48.584;13.460;2022-07-29T11:15:17;96714.72;;;29.97;39.66
45731;BME280;31440;48.584;13.460;2022-07-29T11:20:46;96703.47;;;30.02;43.39
45731;BME280;31440;48.584;13.460;2022-07-29T11:23:26;96698.47;;;30.43;39.96
45731;BME280;31440;48.584;13.460;2022-07-29T11:31:33;96704.78;;;30.35;40.46
45731;BME280;31440;48.584;13.460;2022-07-29T11:45:01;96690.69;;;30.99;40.60
45731;BME280;31440;48.584;13.460;2022-07-29T11:47:30;96681.22;;;31.03;40.41
45731;BME280;31440;48.584;13.460;2022-07-29T11:49:57;96684.97;;;31.72;39.57
45731;BME280;31440;48.584;13.460;2022-07-29T11:52:34;96681.06;;;31.47;37.58
45731;BME280;31440;48.584;13.460;2022-07-29T11:55:04;96680.09;;;30.91;36.89
45731;BME280;31440;48.584;13.460;2022-07-29T11:57:30;96672.00;;;31.27;37.99
45731;BME280;31440;48.584;13.460;2022-07-29T11:59:57;96660.91;;;31.36;38.03
45731;BME280;31440;48.584;13.460;2022-07-29T12:02:23;96666.56;;;32.32;35.79
45731;BME280;31440;48.584;13.460;2022-07-29T12:04:53;96663.88;;;31.97;35.21
45731;BME280;31440;48.584;13.460;2022-07-29T12:07:30;96670.63;;;32.21;39.32
45731;BME280;31440;48.584;13.460;2022-07-29T12:09:56;96662.00;;;32.80;38.05
45731;BME280;31440;48.584;13.460;2022-07-29T12:12:22;96661.63;;;32.07;37.40
45731;BME280;31440;48.584;13.460;2022-07-29T12:14:48;96661.00;;;32.05;39.79
45731;BME280;31440;48.584;13.460;2022-07-29T12:17:27;96666.84;;;30.89;35.81
45731;BME280;31440;48.584;13.460;2022-07-29T12:19:54;96654.75;;;31.00;37.11
45731;BME280;31440;48.584;13.460;2022-07-29T12:22:29;96654.91;;;31.34;35.54
45731;BME280;31440;48.584;13.460;2022-07-29T12:24:55;96651.72;;;31.52;36.80
45731;BME280;31440;48.584;13.460;2022-07-29T12:27:25;96657.03;;;32.29;35.27
45731;BME280;31440;48.584;13.460;2022-07-29T12:29:57;96651.38;;;32.65;33.76
45731;BME280;31440;48.584;13.460;2022-07-29T12:32:40;96647.56;;;32.46;34.31
45731;BME280;31440;48.584;13.460;2022-07-29T12:35:09;96641.78;;;33.24;35.13
45731;BME280;31440;48.584;13.460;2022-07-29T12:37:36;96636.75;;;31.36;32.54
45731;BME280;31440;48.584;13.460;2022-07-29T12:40:04;96633.09;;;31.44;34.59
45731;BME280;31440;48.584;13.460;2022-07-29T12:42:31;96617.78;;;30.74;35.67
45731;BME280;31440;48.584;13.460;2022-07-29T12:44:57;96629.88;;;29.75;36.26
45731;BME280;31440;48.584;13.460;2022-07-29T12:47:23;96631.84;;;29.81;39.23
45731;BME280;31440;48.584;13.460;2022-07-29T12:49:49;96624.63;;;29.15;42.04
45731;BME280;31440;48.584;13.460;2022-07-29T12:52:32;96625.34;;;29.90;40.98
45731;BME280;31440;48.584;13.460;2022-07-29T12:54:58;96615.38;;;30.14;38.18
45731;BME280;31440;48.584;13.460;2022-07-29T12:57:25;96636.53;;;31.17;35.79
45731;BME280;31440;48.584;13.460;2022-07-29T13:00:07;96633.22;;;32.94;35.07
45731;BME280;31440;48.584;13.460;2022-07-29T13:02:34;96636.91;;;32.25;32.92
45731;BME280;31440;48.584;13.460;2022-07-29T13:05:00;96637.91;;;32.65;36.77
45731;BME280;31440;48.584;13.460;2022-07-29T13:07:28;96635.53;;;33.16;33.76
45731;BME280;31440;48.584;13.460;2022-07-29T13:10:13;96636.03;;;32.59;31.71
45731;BME280;31440;48.584;13.460;2022-07-29T13:13:13;96618.28;;;32.78;34.49
45731;BME280;31440;48.584;13.460;2022-07-29T13:15:41;96621.66;;;32.32;31.60
45731;BME280;31440;48.584;13.460;2022-07-29T13:18:30;96620.38;;;31.87;33.00
45731;BME280;31440;48.584;13.460;2022-07-29T13:20:56;96623.47;;;32.25;34.39
45731;BME280;31440;48.584;13.460;2022-07-29T13:23:22;96614.44;;;33.60;33.67
45731;BME280;31440;48.584;13.460;2022-07-29T13:25:48;96616.09;;;33.61;30.93
45731;BME280;31440;48.584;13.460;2022-07-29T13:28:13;96605.72;;;33.25;32.66
45731;BME280;31440;48.584;13.460;2022-07-29T13:30:39;96609.22;;;31.90;34.40